sensor_id;sensor_type;location;lat;lon;timestamp;temperature;humidity
28947;DHT22;16052;50.930;5.326;2023-02-28T00:01:21;4.40;29.20
28947;DHT22;16052;50.930;5.326;2023-02-28T00:03:47;4.40;30.90
28947;DHT22;16052;50.930;5.326;2023-02-28T00:06:13;4.40;31.20
28947;DHT22;16052;50.930;5.326;2023-02-28T00:08:39;4.30;32.80
28947;DHT22;16052;50.930;5.326;2023-02-28T00:11:06;4.40;33.10
28947;DHT22;16052;50.930;5.326;2023-02-28T00:13:34;4.40;31.50
28947;DHT22;16052;50.930;5.326;2023-02-28T00:16:05;4.40;31.50
28947;DHT22;16052;50.930;5.326;2023-02-28T00:18:31;4.40;29.90
28947;DHT22;16052;50.930;5.326;2023-02-28T00:20:58;4.30;32.60
28947;DHT22;16052;50.930;5.326;2023-02-28T00:23:24;4.30;32.90
28947;DHT22;16052;50.930;5.326;2023-02-28T00:25:50;4.20;35.30
28947;DHT22;16052;50.930;5.326;2023-02-28T00:28:16;4.20;35.20
28947;DHT22;16052;50.930;5.326;2023-02-28T00:30:42;4.10;37.30
28947;DHT22;16052;50.930;5.326;2023-02-28T00:33:08;4.10;39.00
28947;DHT22;16052;50.930;5.326;2023-02-28T00:35:33;4.10;40.50
28947;DHT22;16052;50.930;5.326;2023-02-28T00:37:59;4.10;41.70
28947;DHT22;16052;50.930;5.326;2023-02-28T00:40:25;4.20;39.00
28947;DHT22;16052;50.930;5.326;2023-02-28T00:42:50;4.20;37.70
28947;DHT22;16052;50.930;5.326;2023-02-28T00:45:16;4.30;36.50
28947;DHT22;16052;50.930;5.326;2023-02-28T00:47:42;4.30;35.10
28947;DHT22;16052;50.930;5.326;2023-02-28T00:50:08;4.30;36.00
28947;DHT22;16052;50.930;5.326;2023-02-28T00:52:34;4.30;37.00
28947;DHT22;16052;50.930;5.326;2023-02-28T00:54:59;4.30;34.70
28947;DHT22;16052;50.930;5.326;2023-02-28T00:57:25;4.30;36.50
28947;DHT22;16052;50.930;5.326;2023-02-28T00:59:51;4.20;36.90
28947;DHT22;16052;50.930;5.326;2023-02-28T01:02:20;4.10;37.30
28947;DHT22;16052;50.930;5.326;2023-02-28T01:04:46;4.00;43.40
28947;DHT22;16052;50.930;5.326;2023-02-28T01:07:12;4.00;42.40
28947;DHT22;16052;50.930;5.326;2023-02-28T01:09:37;4.20;40.30
28947;DHT22;16052;50.930;5.326;2023-02-28T01:12:03;4.10;40.90
28947;DHT22;16052;50.930;5.326;2023-02-28T01:14:29;4.10;41.10
28947;DHT22;16052;50.930;5.326;2023-02-28T01:16:55;4.00;43.00
28947;DHT22;16052;50.930;5.326;2023-02-28T01:19:20;4.00;43.40
28947;DHT22;16052;50.930;5.326;2023-02-28T01:21:46;4.00;43.90
28947;DHT22;16052;50.930;5.326;2023-02-28T01:24:11;4.00;42.50
28947;DHT22;16052;50.930;5.326;2023-02-28T01:26:37;4.00;43.90
28947;DHT22;16052;50.930;5.326;2023-02-28T01:29:03;3.90;44.70
28947;DHT22;16052;50.930;5.326;2023-02-28T01:31:28;3.80;45.10
28947;DHT22;16052;50.930;5.326;2023-02-28T01:33:54;3.80;45.90
28947;DHT22;16052;50.930;5.326;2023-02-28T01:36:22;3.80;46.70
28947;DHT22;16052;50.930;5.326;2023-02-28T01:38:48;3.80;45.70
28947;DHT22;16052;50.930;5.326;2023-02-28T01:41:21;3.90;43.40
28947;DHT22;16052;50.930;5.326;2023-02-28T01:46:13;3.80;43.70
28947;DHT22;16052;50.930;5.326;2023-02-28T01:48:49;3.60;49.80
28947;DHT22;16052;50.930;5.326;2023-02-28T01:51:44;3.90;42.80
28947;DHT22;16052;50.930;5.326;2023-02-28T01:54:16;3.90;41.20
28947;DHT22;16052;50.930;5.326;2023-02-28T01:56:57;3.70;46.70
28947;DHT22;16052;50.930;5.326;2023-02-28T01:59:35;3.60;49.10
28947;DHT22;16052;50.930;5.326;2023-02-28T02:02:03;3.70;48.60
28947;DHT22;16052;50.930;5.326;2023-02-28T02:04:37;3.90;42.50
28947;DHT22;16052;50.930;5.326;2023-02-28T02:07:04;3.90;41.70
28947;DHT22;16052;50.930;5.326;2023-02-28T02:09:30;3.70;45.70
28947;DHT22;16052;50.930;5.326;2023-02-28T02:11:56;3.70;45.30
28947;DHT22;16052;50.930;5.326;2023-02-28T02:14:43;3.60;47.00
28947;DHT22;16052;50.930;5.326;2023-02-28T02:17:32;3.60;49.10
28947;DHT22;16052;50.930;5.326;2023-02-28T02:23:01;3.50;52.70
28947;DHT22;16052;50.930;5.326;2023-02-28T02:28:52;3.60;50.30
28947;DHT22;16052;50.930;5.326;2023-02-28T02:34:33;3.60;50.80
28947;DHT22;16052;50.930;5.326;2023-02-28T02:37:27;3.60;51.00
28947;DHT22;16052;50.930;5.326;2023-02-28T02:40:16;3.60;49.20
28947;DHT22;16052;50.930;5.326;2023-02-28T02:43:07;3.60;50.20
28947;DHT22;16052;50.930;5.326;2023-02-28T02:48:14;3.60;50.80
28947;DHT22;16052;50.930;5.326;2023-02-28T02:50:46;3.60;50.90
28947;DHT22;16052;50.930;5.326;2023-02-28T02:53:17;3.70;49.90
28947;DHT22;16052;50.930;5.326;2023-02-28T02:55:43;3.70;47.00
28947;DHT22;16052;50.930;5.326;2023-02-28T02:58:19;3.80;45.80
28947;DHT22;16052;50.930;5.326;2023-02-28T03:00:48;3.60;48.30
28947;DHT22;16052;50.930;5.326;2023-02-28T03:03:17;3.70;46.50
28947;DHT22;16052;50.930;5.326;2023-02-28T03:08:13;3.70;46.40
28947;DHT22;16052;50.930;5.326;2023-02-28T03:10:42;3.60;47.40
28947;DHT22;16052;50.930;5.326;2023-02-28T03:13:12;3.60;48.30
28947;DHT22;16052;50.930;5.326;2023-02-28T03:16:22;3.60;47.80
28947;DHT22;16052;50.930;5.326;2023-02-28T03:22:28;3.60;47.90
28947;DHT22;16052;50.930;5.326;2023-02-28T03:33:15;3.70;43.30
28947;DHT22;16052;50.930;5.326;2023-02-28T03:35:48;3.70;43.10
28947;DHT22;16052;50.930;5.326;2023-02-28T03:41:45;3.60;43.80
28947;DHT22;16052;50.930;5.326;2023-02-28T03:44:05;3.50;49.00
28947;DHT22;16052;50.930;5.326;2023-02-28T03:46:36;3.50;50.60
28947;DHT22;16052;50.930;5.326;2023-02-28T03:49:17;3.30;55.20
28947;DHT22;16052;50.930;5.326;2023-02-28T03:51:46;3.20;60.70
28947;DHT22;16052;50.930;5.326;2023-02-28T03:54:18;3.10;61.50
28947;DHT22;16052;50.930;5.326;2023-02-28T03:59:49;3.30;59.10
28947;DHT22;16052;50.930;5.326;2023-02-28T04:02:18;3.30;57.80
28947;DHT22;16052;50.930;5.326;2023-02-28T04:04:43;3.30;58.00
28947;DHT22;16052;50.930;5.326;2023-02-28T04:07:11;3.20;59.10
28947;DHT22;16052;50.930;5.326;2023-02-28T04:09:37;3.20;59.10
28947;DHT22;16052;50.930;5.326;2023-02-28T04:12:03;3.30;58.20
28947;DHT22;16052;50.930;5.326;2023-02-28T04:14:28;3.20;58.50
28947;DHT22;16052;50.930;5.326;2023-02-28T04:16:54;3.20;58.50
28947;DHT22;16052;50.930;5.326;2023-02-28T04:19:20;3.20;58.40
28947;DHT22;16052;50.930;5.326;2023-02-28T04:21:50;3.20;59.70
28947;DHT22;16052;50.930;5.326;2023-02-28T04:24:21;3.10;59.60
28947;DHT22;16052;50.930;5.326;2023-02-28T04:26:48;3.20;61.40
28947;DHT22;16052;50.930;5.326;2023-02-28T04:29:20;3.20;60.30
28947;DHT22;16052;50.930;5.326;2023-02-28T04:31:47;3.20;61.50
28947;DHT22;16052;50.930;5.326;2023-02-28T04:34:13;3.10;61.90
28947;DHT22;16052;50.930;5.326;2023-02-28T04:36:39;3.00;64.10
28947;DHT22;16052;50.930;5.326;2023-02-28T04:39:04;3.10;61.30
28947;DHT22;16052;50.930;5.326;2023-02-28T04:41:30;3.10;62.50
28947;DHT22;16052;50.930;5.326;2023-02-28T04:43:56;3.00;61.90
28947;DHT22;16052;50.930;5.326;2023-02-28T04:46:22;3.10;62.10
28947;DHT22;16052;50.930;5.326;2023-02-28T04:48:48;3.20;60.30
28947;DHT22;16052;50.930;5.326;2023-02-28T04:51:18;3.30;57.00
28947;DHT22;16052;50.930;5.326;2023-02-28T04:53:45;3.30;57.30
28947;DHT22;16052;50.930;5.326;2023-02-28T04:56:13;3.30;56.90
28947;DHT22;16052;50.930;5.326;2023-02-28T04:58:39;3.20;58.20
28947;DHT22;16052;50.930;5.326;2023-02-28T05:01:34;3.20;58.50
28947;DHT22;16052;50.930;5.326;2023-02-28T05:04:03;3.20;58.90
28947;DHT22;16052;50.930;5.326;2023-02-28T05:06:30;3.30;55.90
28947;DHT22;16052;50.930;5.326;2023-02-28T05:08:57;3.20;58.30
28947;DHT22;16052;50.930;5.326;2023-02-28T05:11:31;3.20;55.80
28947;DHT22;16052;50.930;5.326;2023-02-28T05:14:04;2.90;58.20
28947;DHT22;16052;50.930;5.326;2023-02-28T05:16:30;2.80;65.70
28947;DHT22;16052;50.930;5.326;2023-02-28T05:18:56;2.90;67.20
28947;DHT22;16052;50.930;5.326;2023-02-28T05:23:52;3.10;60.30
28947;DHT22;16052;50.930;5.326;2023-02-28T05:26:19;3.20;58.80
28947;DHT22;16052;50.930;5.326;2023-02-28T05:28:44;3.30;55.30
28947;DHT22;16052;50.930;5.326;2023-02-28T05:31:11;3.40;50.20
28947;DHT22;16052;50.930;5.326;2023-02-28T05:33:36;3.30;51.00
28947;DHT22;16052;50.930;5.326;2023-02-28T05:36:03;3.10;54.90
28947;DHT22;16052;50.930;5.326;2023-02-28T05:38:28;3.20;54.10
28947;DHT22;16052;50.930;5.326;2023-02-28T05:40:54;2.80;57.80
28947;DHT22;16052;50.930;5.326;2023-02-28T05:43:19;2.80;61.00
28947;DHT22;16052;50.930;5.326;2023-02-28T05:45:45;2.80;65.00
28947;DHT22;16052;50.930;5.326;2023-02-28T05:48:11;2.90;59.70
28947;DHT22;16052;50.930;5.326;2023-02-28T05:50:37;3.00;60.10
28947;DHT22;16052;50.930;5.326;2023-02-28T05:53:03;2.90;62.20
28947;DHT22;16052;50.930;5.326;2023-02-28T05:55:29;2.80;63.20
28947;DHT22;16052;50.930;5.326;2023-02-28T05:57:54;2.70;63.30
28947;DHT22;16052;50.930;5.326;2023-02-28T06:00:21;2.70;67.60
28947;DHT22;16052;50.930;5.326;2023-02-28T06:02:47;2.60;69.00
28947;DHT22;16052;50.930;5.326;2023-02-28T06:05:16;2.60;69.30
28947;DHT22;16052;50.930;5.326;2023-02-28T06:07:42;2.60;68.90
28947;DHT22;16052;50.930;5.326;2023-02-28T06:10:09;2.70;68.30
28947;DHT22;16052;50.930;5.326;2023-02-28T06:12:35;2.60;64.90
28947;DHT22;16052;50.930;5.326;2023-02-28T06:15:01;2.60;68.10
28947;DHT22;16052;50.930;5.326;2023-02-28T06:17:26;2.50;69.20
28947;DHT22;16052;50.930;5.326;2023-02-28T06:19:52;2.50;70.60
28947;DHT22;16052;50.930;5.326;2023-02-28T06:22:18;2.50;69.70
28947;DHT22;16052;50.930;5.326;2023-02-28T06:24:43;2.50;70.50
28947;DHT22;16052;50.930;5.326;2023-02-28T06:27:09;2.50;68.80
28947;DHT22;16052;50.930;5.326;2023-02-28T06:29:35;2.40;72.40
28947;DHT22;16052;50.930;5.326;2023-02-28T06:32:01;2.40;71.40
28947;DHT22;16052;50.930;5.326;2023-02-28T06:34:29;2.30;73.30
28947;DHT22;16052;50.930;5.326;2023-02-28T06:36:55;2.20;75.00
28947;DHT22;16052;50.930;5.326;2023-02-28T06:39:20;2.20;74.30
28947;DHT22;16052;50.930;5.326;2023-02-28T06:41:46;2.30;73.30
28947;DHT22;16052;50.930;5.326;2023-02-28T06:44:15;2.30;72.30
28947;DHT22;16052;50.930;5.326;2023-02-28T06:46:42;2.30;69.70
28947;DHT22;16052;50.930;5.326;2023-02-28T06:49:09;2.30;71.20
28947;DHT22;16052;50.930;5.326;2023-02-28T06:51:37;2.20;71.90
28947;DHT22;16052;50.930;5.326;2023-02-28T06:54:03;2.20;72.40
28947;DHT22;16052;50.930;5.326;2023-02-28T06:56:29;2.20;73.20
28947;DHT22;16052;50.930;5.326;2023-02-28T06:58:55;2.20;71.10
28947;DHT22;16052;50.930;5.326;2023-02-28T07:01:21;2.30;69.50
28947;DHT22;16052;50.930;5.326;2023-02-28T07:03:50;2.30;70.80
28947;DHT22;16052;50.930;5.326;2023-02-28T07:06:18;2.30;69.60
28947;DHT22;16052;50.930;5.326;2023-02-28T07:08:44;2.30;71.60
28947;DHT22;16052;50.930;5.326;2023-02-28T07:11:10;2.40;69.20
28947;DHT22;16052;50.930;5.326;2023-02-28T07:13:36;2.50;69.20
28947;DHT22;16052;50.930;5.326;2023-02-28T07:16:04;2.50;69.40
28947;DHT22;16052;50.930;5.326;2023-02-28T07:18:31;2.60;68.30
28947;DHT22;16052;50.930;5.326;2023-02-28T07:21:04;2.70;67.60
28947;DHT22;16052;50.930;5.326;2023-02-28T07:23:31;2.70;64.70
28947;DHT22;16052;50.930;5.326;2023-02-28T07:26:00;2.80;62.80
28947;DHT22;16052;50.930;5.326;2023-02-28T07:28:25;2.80;61.50
28947;DHT22;16052;50.930;5.326;2023-02-28T07:30:51;2.90;56.10
28947;DHT22;16052;50.930;5.326;2023-02-28T07:33:17;3.00;55.30
28947;DHT22;16052;50.930;5.326;2023-02-28T07:36:07;2.90;55.80
28947;DHT22;16052;50.930;5.326;2023-02-28T07:38:57;2.80;52.80
28947;DHT22;16052;50.930;5.326;2023-02-28T07:41:49;2.70;57.30
28947;DHT22;16052;50.930;5.326;2023-02-28T07:44:14;2.90;56.40
28947;DHT22;16052;50.930;5.326;2023-02-28T07:46:40;2.90;54.80
28947;DHT22;16052;50.930;5.326;2023-02-28T07:49:07;3.00;51.50
28947;DHT22;16052;50.930;5.326;2023-02-28T07:51:32;3.10;46.20
28947;DHT22;16052;50.930;5.326;2023-02-28T07:53:58;3.20;45.60
28947;DHT22;16052;50.930;5.326;2023-02-28T07:56:24;3.30;45.70
28947;DHT22;16052;50.930;5.326;2023-02-28T07:58:49;3.50;41.30
28947;DHT22;16052;50.930;5.326;2023-02-28T08:01:15;3.60;39.30
28947;DHT22;16052;50.930;5.326;2023-02-28T08:03:41;3.70;38.00
28947;DHT22;16052;50.930;5.326;2023-02-28T08:06:08;3.80;32.00
28947;DHT22;16052;50.930;5.326;2023-02-28T08:08:39;3.80;34.30
28947;DHT22;16052;50.930;5.326;2023-02-28T08:11:05;3.80;35.00
28947;DHT22;16052;50.930;5.326;2023-02-28T08:13:32;4.00;28.20
28947;DHT22;16052;50.930;5.326;2023-02-28T08:15:57;4.00;27.20
28947;DHT22;16052;50.930;5.326;2023-02-28T08:18:23;4.10;25.30
28947;DHT22;16052;50.930;5.326;2023-02-28T08:20:49;4.20;23.30
28947;DHT22;16052;50.930;5.326;2023-02-28T08:23:15;4.20;20.30
28947;DHT22;16052;50.930;5.326;2023-02-28T08:25:41;4.40;17.30
28947;DHT22;16052;50.930;5.326;2023-02-28T08:28:06;4.40;13.50
28947;DHT22;16052;50.930;5.326;2023-02-28T08:30:32;4.30;17.30
28947;DHT22;16052;50.930;5.326;2023-02-28T08:32:58;4.40;14.00
28947;DHT22;16052;50.930;5.326;2023-02-28T08:35:23;4.50;9.90
28947;DHT22;16052;50.930;5.326;2023-02-28T08:37:49;4.60;13.70
28947;DHT22;16052;50.930;5.326;2023-02-28T08:40:16;4.70;12.90
28947;DHT22;16052;50.930;5.326;2023-02-28T08:42:47;4.90;6.30
28947;DHT22;16052;50.930;5.326;2023-02-28T08:45:14;5.10;1.00
28947;DHT22;16052;50.930;5.326;2023-02-28T08:47:40;5.20;1.00
28947;DHT22;16052;50.930;5.326;2023-02-28T08:50:07;5.20;1.00
28947;DHT22;16052;50.930;5.326;2023-02-28T08:52:33;5.20;1.00
28947;DHT22;16052;50.930;5.326;2023-02-28T08:54:58;5.30;1.00
28947;DHT22;16052;50.930;5.326;2023-02-28T08:57:24;5.40;1.00
28947;DHT22;16052;50.930;5.326;2023-02-28T08:59:52;5.70;1.00
28947;DHT22;16052;50.930;5.326;2023-02-28T09:02:17;5.80;1.00
28947;DHT22;16052;50.930;5.326;2023-02-28T09:04:43;5.80;1.00
28947;DHT22;16052;50.930;5.326;2023-02-28T09:07:11;5.90;1.00
28947;DHT22;16052;50.930;5.326;2023-02-28T09:09:37;6.10;1.00
28947;DHT22;16052;50.930;5.326;2023-02-28T09:12:03;6.20;1.00
28947;DHT22;16052;50.930;5.326;2023-02-28T09:14:29;6.30;1.00
28947;DHT22;16052;50.930;5.326;2023-02-28T09:16:55;6.40;1.00
28947;DHT22;16052;50.930;5.326;2023-02-28T09:19:20;6.30;1.00
28947;DHT22;16052;50.930;5.326;2023-02-28T09:21:47;6.40;1.00
28947;DHT22;16052;50.930;5.326;2023-02-28T09:24:13;6.50;1.00
28947;DHT22;16052;50.930;5.326;2023-02-28T09:26:40;6.70;1.00
28947;DHT22;16052;50.930;5.326;2023-02-28T09:29:06;6.70;1.00
28947;DHT22;16052;50.930;5.326;2023-02-28T09:31:32;6.80;1.00
28947;DHT22;16052;50.930;5.326;2023-02-28T09:33:58;6.70;1.00
28947;DHT22;16052;50.930;5.326;2023-02-28T09:36:25;6.70;99.90
28947;DHT22;16052;50.930;5.326;2023-02-28T09:38:51;6.70;99.90
28947;DHT22;16052;50.930;5.326;2023-02-28T09:41:27;6.60;99.90
28947;DHT22;16052;50.930;5.326;2023-02-28T09:44:00;6.60;99.50
28947;DHT22;16052;50.930;5.326;2023-02-28T09:49:06;6.80;99.90
28947;DHT22;16052;50.930;5.326;2023-02-28T09:51:47;6.90;99.90
28947;DHT22;16052;50.930;5.326;2023-02-28T09:54:19;7.10;99.90
28947;DHT22;16052;50.930;5.326;2023-02-28T09:56:51;7.00;1.00
28947;DHT22;16052;50.930;5.326;2023-02-28T10:06:06;7.20;99.90
28947;DHT22;16052;50.930;5.326;2023-02-28T10:08:37;7.30;99.90
28947;DHT22;16052;50.930;5.326;2023-02-28T10:11:10;7.40;99.90
28947;DHT22;16052;50.930;5.326;2023-02-28T10:13:56;7.50;99.90
28947;DHT22;16052;50.930;5.326;2023-02-28T10:16:36;7.50;53.80
28947;DHT22;16052;50.930;5.326;2023-02-28T10:19:14;7.40;99.90
28947;DHT22;16052;50.930;5.326;2023-02-28T10:26:59;7.50;8.30
28947;DHT22;16052;50.930;5.326;2023-02-28T10:29:26;7.50;1.00
28947;DHT22;16052;50.930;5.326;2023-02-28T10:31:52;7.50;1.00
28947;DHT22;16052;50.930;5.326;2023-02-28T10:34:17;7.60;1.00
28947;DHT22;16052;50.930;5.326;2023-02-28T10:36:44;7.50;99.90
28947;DHT22;16052;50.930;5.326;2023-02-28T10:39:35;7.50;99.90
28947;DHT22;16052;50.930;5.326;2023-02-28T10:42:03;7.60;99.90
28947;DHT22;16052;50.930;5.326;2023-02-28T10:44:29;7.50;1.00
28947;DHT22;16052;50.930;5.326;2023-02-28T10:46:55;7.30;1.00
28947;DHT22;16052;50.930;5.326;2023-02-28T10:49:24;7.30;1.00
28947;DHT22;16052;50.930;5.326;2023-02-28T10:51:55;7.30;14.10
28947;DHT22;16052;50.930;5.326;2023-02-28T10:54:29;7.30;91.20
28947;DHT22;16052;50.930;5.326;2023-02-28T10:57:15;7.20;27.90
28947;DHT22;16052;50.930;5.326;2023-02-28T10:59:41;7.00;1.00
28947;DHT22;16052;50.930;5.326;2023-02-28T11:02:41;6.90;1.00
28947;DHT22;16052;50.930;5.326;2023-02-28T11:05:31;7.10;1.00
28947;DHT22;16052;50.930;5.326;2023-02-28T11:10:32;7.00;1.00
28947;DHT22;16052;50.930;5.326;2023-02-28T11:13:02;7.10;1.00
28947;DHT22;16052;50.930;5.326;2023-02-28T11:15:31;7.20;99.90
28947;DHT22;16052;50.930;5.326;2023-02-28T11:20:33;7.40;1.00
28947;DHT22;16052;50.930;5.326;2023-02-28T11:23:01;7.50;99.90
28947;DHT22;16052;50.930;5.326;2023-02-28T11:25:35;7.80;99.90
28947;DHT22;16052;50.930;5.326;2023-02-28T11:28:04;8.00;99.90
28947;DHT22;16052;50.930;5.326;2023-02-28T11:30:34;8.20;1.00
28947;DHT22;16052;50.930;5.326;2023-02-28T11:35:41;8.30;99.90
28947;DHT22;16052;50.930;5.326;2023-02-28T11:38:16;8.40;1.00
28947;DHT22;16052;50.930;5.326;2023-02-28T11:41:03;8.40;99.90
28947;DHT22;16052;50.930;5.326;2023-02-28T11:49:14;8.60;99.90
28947;DHT22;16052;50.930;5.326;2023-02-28T11:52:00;8.80;99.90
28947;DHT22;16052;50.930;5.326;2023-02-28T12:05:24;9.10;99.90
28947;DHT22;16052;50.930;5.326;2023-02-28T12:19:16;9.30;99.90
28947;DHT22;16052;50.930;5.326;2023-02-28T12:24:49;9.20;1.00
28947;DHT22;16052;50.930;5.326;2023-02-28T12:27:18;9.20;1.00
28947;DHT22;16052;50.930;5.326;2023-02-28T12:29:57;9.20;99.90
28947;DHT22;16052;50.930;5.326;2023-02-28T12:32:30;9.20;99.90
28947;DHT22;16052;50.930;5.326;2023-02-28T12:37:51;9.30;1.00
28947;DHT22;16052;50.930;5.326;2023-02-28T12:40:22;9.40;1.00
28947;DHT22;16052;50.930;5.326;2023-02-28T12:43:02;9.60;1.00
28947;DHT22;16052;50.930;5.326;2023-02-28T12:45:50;9.60;1.00
28947;DHT22;16052;50.930;5.326;2023-02-28T12:48:38;9.70;1.00
28947;DHT22;16052;50.930;5.326;2023-02-28T12:51:07;9.60;99.90
28947;DHT22;16052;50.930;5.326;2023-02-28T12:53:47;9.70;1.00
28947;DHT22;16052;50.930;5.326;2023-02-28T13:09:58;10.10;1.00
28947;DHT22;16052;50.930;5.326;2023-02-28T13:12:25;10.10;99.90
28947;DHT22;16052;50.930;5.326;2023-02-28T13:15:06;10.20;99.90
28947;DHT22;16052;50.930;5.326;2023-02-28T13:17:39;10.20;99.90
28947;DHT22;16052;50.930;5.326;2023-02-28T13:20:22;10.20;99.90
28947;DHT22;16052;50.930;5.326;2023-02-28T13:22:53;10.10;1.00
28947;DHT22;16052;50.930;5.326;2023-02-28T13:27:55;9.80;99.90
28947;DHT22;16052;50.930;5.326;2023-02-28T13:38:36;10.10;1.00
28947;DHT22;16052;50.930;5.326;2023-02-28T13:44:15;10.30;99.90
28947;DHT22;16052;50.930;5.326;2023-02-28T13:49:31;10.60;17.20
28947;DHT22;16052;50.930;5.326;2023-02-28T13:52:10;10.60;1.00
28947;DHT22;16052;50.930;5.326;2023-02-28T13:57:48;10.60;4.40
28947;DHT22;16052;50.930;5.326;2023-02-28T14:06:18;10.60;99.90
28947;DHT22;16052;50.930;5.326;2023-02-28T14:09:02;10.60;99.90
28947;DHT22;16052;50.930;5.326;2023-02-28T14:11:41;10.70;99.90
28947;DHT22;16052;50.930;5.326;2023-02-28T14:14:08;10.80;99.90
28947;DHT22;16052;50.930;5.326;2023-02-28T14:16:45;11.10;99.90
28947;DHT22;16052;50.930;5.326;2023-02-28T14:19:26;11.10;99.90
28947;DHT22;16052;50.930;5.326;2023-02-28T14:33:26;10.90;1.00
28947;DHT22;16052;50.930;5.326;2023-02-28T14:38:33;11.20;99.90
28947;DHT22;16052;50.930;5.326;2023-02-28T14:41:06;11.40;99.90
28947;DHT22;16052;50.930;5.326;2023-02-28T14:43:57;11.40;1.00
28947;DHT22;16052;50.930;5.326;2023-02-28T14:46:27;11.50;1.00
28947;DHT22;16052;50.930;5.326;2023-02-28T14:48:54;11.50;80.50
28947;DHT22;16052;50.930;5.326;2023-02-28T14:51:21;11.40;99.90
28947;DHT22;16052;50.930;5.326;2023-02-28T14:53:50;11.40;99.90
28947;DHT22;16052;50.930;5.326;2023-02-28T14:56:23;11.20;1.00
28947;DHT22;16052;50.930;5.326;2023-02-28T14:58:54;11.10;1.00
28947;DHT22;16052;50.930;5.326;2023-02-28T15:01:22;10.90;1.00
28947;DHT22;16052;50.930;5.326;2023-02-28T15:03:48;10.90;1.00
28947;DHT22;16052;50.930;5.326;2023-02-28T15:06:21;10.80;1.00
28947;DHT22;16052;50.930;5.326;2023-02-28T15:09:07;10.90;1.00
28947;DHT22;16052;50.930;5.326;2023-02-28T15:11:33;10.90;1.00
28947;DHT22;16052;50.930;5.326;2023-02-28T15:14:00;10.90;99.90
28947;DHT22;16052;50.930;5.326;2023-02-28T15:16:32;10.90;1.00
28947;DHT22;16052;50.930;5.326;2023-02-28T15:19:03;10.80;1.00
28947;DHT22;16052;50.930;5.326;2023-02-28T15:21:38;10.80;99.90
28947;DHT22;16052;50.930;5.326;2023-02-28T15:24:10;10.80;1.00
28947;DHT22;16052;50.930;5.326;2023-02-28T15:26:42;10.80;1.00
28947;DHT22;16052;50.930;5.326;2023-02-28T15:29:15;10.70;1.00
28947;DHT22;16052;50.930;5.326;2023-02-28T15:32:02;10.70;1.00
28947;DHT22;16052;50.930;5.326;2023-02-28T15:34:42;10.80;1.00
28947;DHT22;16052;50.930;5.326;2023-02-28T15:42:39;10.80;1.00
28947;DHT22;16052;50.930;5.326;2023-02-28T15:45:05;10.70;1.00
28947;DHT22;16052;50.930;5.326;2023-02-28T15:47:31;10.80;1.00
28947;DHT22;16052;50.930;5.326;2023-02-28T15:50:06;10.90;99.90
28947;DHT22;16052;50.930;5.326;2023-02-28T15:52:43;10.80;99.90
28947;DHT22;16052;50.930;5.326;2023-02-28T15:57:39;10.70;99.90
28947;DHT22;16052;50.930;5.326;2023-02-28T16:00:12;10.80;99.90
28947;DHT22;16052;50.930;5.326;2023-02-28T16:02:39;11.00;99.90
28947;DHT22;16052;50.930;5.326;2023-02-28T16:07:41;11.00;99.90
28947;DHT22;16052;50.930;5.326;2023-02-28T16:10:10;10.90;99.90
28947;DHT22;16052;50.930;5.326;2023-02-28T16:12:38;10.70;99.90
28947;DHT22;16052;50.930;5.326;2023-02-28T16:15:27;10.60;99.90
28947;DHT22;16052;50.930;5.326;2023-02-28T16:17:55;10.50;99.90
28947;DHT22;16052;50.930;5.326;2023-02-28T16:20:23;10.50;1.00
28947;DHT22;16052;50.930;5.326;2023-02-28T16:22:49;10.60;1.00
28947;DHT22;16052;50.930;5.326;2023-02-28T16:25:17;10.70;1.00
28947;DHT22;16052;50.930;5.326;2023-02-28T16:27:46;10.70;1.00
28947;DHT22;16052;50.930;5.326;2023-02-28T16:30:24;10.60;1.00
28947;DHT22;16052;50.930;5.326;2023-02-28T16:32:50;10.30;1.00
28947;DHT22;16052;50.930;5.326;2023-02-28T16:35:17;10.30;99.90
28947;DHT22;16052;50.930;5.326;2023-02-28T16:37:43;10.20;99.90
28947;DHT22;16052;50.930;5.326;2023-02-28T16:40:21;10.20;99.90
28947;DHT22;16052;50.930;5.326;2023-02-28T16:42:51;10.20;99.90
28947;DHT22;16052;50.930;5.326;2023-02-28T16:45:18;10.10;99.90
28947;DHT22;16052;50.930;5.326;2023-02-28T16:47:45;10.10;1.00
28947;DHT22;16052;50.930;5.326;2023-02-28T16:50:20;10.00;1.00
28947;DHT22;16052;50.930;5.326;2023-02-28T16:52:46;10.00;99.90
28947;DHT22;16052;50.930;5.326;2023-02-28T16:55:12;9.90;99.90
28947;DHT22;16052;50.930;5.326;2023-02-28T16:57:38;10.00;99.90
28947;DHT22;16052;50.930;5.326;2023-02-28T17:00:06;9.80;99.90
28947;DHT22;16052;50.930;5.326;2023-02-28T17:02:33;9.90;1.00
28947;DHT22;16052;50.930;5.326;2023-02-28T17:04:59;10.00;1.00
28947;DHT22;16052;50.930;5.326;2023-02-28T17:07:25;9.90;1.00
28947;DHT22;16052;50.930;5.326;2023-02-28T17:09:50;9.80;1.00
28947;DHT22;16052;50.930;5.326;2023-02-28T17:12:16;9.70;1.00
28947;DHT22;16052;50.930;5.326;2023-02-28T17:14:42;9.80;9.80
28947;DHT22;16052;50.930;5.326;2023-02-28T17:17:14;9.80;40.00
28947;DHT22;16052;50.930;5.326;2023-02-28T17:19:41;9.70;99.90
28947;DHT22;16052;50.930;5.326;2023-02-28T17:22:09;9.60;99.90
28947;DHT22;16052;50.930;5.326;2023-02-28T17:24:35;9.40;99.90
28947;DHT22;16052;50.930;5.326;2023-02-28T17:27:01;9.20;99.90
28947;DHT22;16052;50.930;5.326;2023-02-28T17:29:27;9.00;99.90
28947;DHT22;16052;50.930;5.326;2023-02-28T17:31:53;9.00;99.90
28947;DHT22;16052;50.930;5.326;2023-02-28T17:34:19;8.90;1.00
28947;DHT22;16052;50.930;5.326;2023-02-28T17:36:46;8.80;1.00
28947;DHT22;16052;50.930;5.326;2023-02-28T17:39:13;8.90;1.00
28947;DHT22;16052;50.930;5.326;2023-02-28T17:41:41;8.90;13.40
28947;DHT22;16052;50.930;5.326;2023-02-28T17:44:08;8.90;77.20
28947;DHT22;16052;50.930;5.326;2023-02-28T17:46:34;8.80;99.90
28947;DHT22;16052;50.930;5.326;2023-02-28T17:49:01;8.70;99.90
28947;DHT22;16052;50.930;5.326;2023-02-28T17:51:27;8.50;99.90
28947;DHT22;16052;50.930;5.326;2023-02-28T17:53:52;8.30;99.90
28947;DHT22;16052;50.930;5.326;2023-02-28T17:56:21;8.20;1.00
28947;DHT22;16052;50.930;5.326;2023-02-28T17:58:49;8.30;56.70
28947;DHT22;16052;50.930;5.326;2023-02-28T18:01:14;8.30;65.40
28947;DHT22;16052;50.930;5.326;2023-02-28T18:03:40;8.30;99.90
28947;DHT22;16052;50.930;5.326;2023-02-28T18:06:07;8.20;99.90
28947;DHT22;16052;50.930;5.326;2023-02-28T18:08:35;8.10;99.90
28947;DHT22;16052;50.930;5.326;2023-02-28T18:11:01;8.10;99.90
28947;DHT22;16052;50.930;5.326;2023-02-28T18:13:26;8.00;1.00
28947;DHT22;16052;50.930;5.326;2023-02-28T18:15:53;8.00;20.80
28947;DHT22;16052;50.930;5.326;2023-02-28T18:18:19;8.00;99.90
28947;DHT22;16052;50.930;5.326;2023-02-28T18:20:45;8.00;1.00
28947;DHT22;16052;50.930;5.326;2023-02-28T18:23:10;8.20;99.90
28947;DHT22;16052;50.930;5.326;2023-02-28T18:25:36;8.20;99.90
28947;DHT22;16052;50.930;5.326;2023-02-28T18:28:03;8.00;99.90
28947;DHT22;16052;50.930;5.326;2023-02-28T18:30:32;7.90;99.90
28947;DHT22;16052;50.930;5.326;2023-02-28T18:32:59;7.80;99.90
28947;DHT22;16052;50.930;5.326;2023-02-28T18:35:26;7.70;1.00
28947;DHT22;16052;50.930;5.326;2023-02-28T18:38:12;7.70;1.00
28947;DHT22;16052;50.930;5.326;2023-02-28T18:40:39;7.50;99.90